»·PEaware :: WAT169 KLAS-KSAN

WAT169 :: KLAS-KSAN

FLIGHT INFORMATION

Flight Status: Arrived
Operator:
Walker Air Transport
More flights by this operator :: More flights under this callsign
Pilot: Marty P. (27464)
Aircraft: BOEING 737-800
(B738)
More flights by this aircraft type
Origin: KLAS McCarran Intl
United States
Destination: KSAN San Diego Intl-Lindbergh
United States
More flights between these airports :: More routes between these airports
Route: BOACH8 LVELL LUCKI1
File this flight plan on PilotEdge
Remarks:
Altitude:
(Current/Filed)
28,000ft
Speed:
(Current/Filed)
470kts
Departed: 03-May-20 09:34 AM
Arrived: 03-May-20 10:19 AM
Distance/Time
Traveled:
225nm/0:45
Distance/Time
To Go:
Arrived

Flight Plot

Page will automatically refresh every two minutes.

Flight plan parsing failed; only flown route is shown


Map Options




Map Legend


Flown Route
Filed Route
Departure Airport
Arrival Airport
Navaid (VOR, NDB)
Fix

Horizontal Profiles

Position Reports

Time Latitude Longitude Heading Altitude Ground
Speed
03-May-20 08:48 36.082642 -115.148771 54 2191ft 0kts
03-May-20 08:49 36.082641 -115.148772 54 2191ft 0kts
03-May-20 08:50 36.082641 -115.148772 54 2191ft 0kts
03-May-20 08:51 36.082641 -115.148772 54 2191ft 0kts
03-May-20 08:52 36.082641 -115.148772 54 2191ft 0kts
03-May-20 08:53 36.082641 -115.148772 54 2191ft 0kts
03-May-20 08:54 36.082641 -115.148772 54 2191ft 0kts
03-May-20 08:55 36.082641 -115.148772 54 2191ft 0kts
03-May-20 08:56 36.082641 -115.148772 54 2191ft 0kts
03-May-20 08:57 36.082641 -115.148772 54 2191ft 0kts
03-May-20 08:58 36.082641 -115.148772 54 2191ft 0kts
03-May-20 08:59 36.082641 -115.148772 54 2191ft 0kts
03-May-20 09:00 36.082641 -115.148772 54 2191ft 0kts
03-May-20 09:01 36.082641 -115.148772 54 2191ft 0kts
03-May-20 09:02 36.082641 -115.148772 54 2191ft 0kts
03-May-20 09:03 36.082641 -115.148772 54 2191ft 0kts
03-May-20 09:04 36.082641 -115.148772 54 2191ft 0kts
03-May-20 09:05 36.082565 -115.148942 74 2191ft 2kts
03-May-20 09:06 36.082706 -115.149582 139 2191ft 0kts
03-May-20 09:07 36.082760 -115.149633 142 2191ft 0kts
03-May-20 09:08 36.082760 -115.149633 142 2191ft 0kts
03-May-20 09:12 36.082932 -115.149023 54 2191ft 0kts
03-May-20 09:13 36.082932 -115.149023 54 2191ft 0kts
03-May-20 09:14 36.082932 -115.149023 54 2191ft 0kts
03-May-20 09:15 36.082932 -115.149023 54 2191ft 0kts
03-May-20 09:16 36.082932 -115.149023 54 2191ft 0kts
03-May-20 09:17 36.082932 -115.149023 54 2191ft 0kts
03-May-20 09:18 36.082932 -115.149023 54 2191ft 0kts
03-May-20 09:19 36.082814 -115.149294 80 2191ft 2kts
03-May-20 09:20 36.082990 -115.149851 144 2191ft 1kts
03-May-20 09:21 36.083008 -115.149867 142 2191ft 0kts
03-May-20 09:22 36.082683 -115.149547 145 2191ft 5kts
03-May-20 09:23 36.081685 -115.148869 155 2191ft 0kts
03-May-20 09:24 36.081512 -115.148770 155 2191ft 3kts
03-May-20 09:25 36.080796 -115.148362 155 2191ft 7kts
03-May-20 09:26 36.078465 -115.146362 95 2191ft 8kts
03-May-20 09:27 36.078267 -115.142591 89 2191ft 15kts
03-May-20 09:28 36.078269 -115.136782 90 2191ft 18kts
03-May-20 09:29 36.078272 -115.130972 90 2191ft 17kts
03-May-20 09:30 36.078277 -115.125245 89 2191ft 18kts
03-May-20 09:31 36.077472 -115.121507 137 2191ft 0kts
03-May-20 09:32 36.076623 -115.121346 214 2191ft 9kts
03-May-20 09:33 36.076165 -115.155181 270 2599ft 191kts
03-May-20 09:34 36.073538 -115.224836 251 4599ft 249kts
03-May-20 09:35 36.018441 -115.280860 200 7042ft 277kts
03-May-20 09:36 35.945703 -115.305235 186 8470ft 278kts
03-May-20 09:37 35.871479 -115.313402 188 11774ft 288kts
03-May-20 09:38 35.780504 -115.306537 178 13546ft 348kts
03-May-20 09:39 35.682333 -115.295383 182 16321ft 360kts
03-May-20 09:41 35.581182 -115.298421 187 18784ft 371kts
03-May-20 09:42 35.477257 -115.302622 187 19002ft 370kts
03-May-20 09:43 35.375034 -115.306660 187 19028ft 364kts
03-May-20 09:44 35.272491 -115.310767 187 19415ft 377kts
03-May-20 09:45 35.166986 -115.314938 187 21561ft 390kts
03-May-20 09:46 35.058085 -115.319201 187 23551ft 399kts
03-May-20 09:47 34.945847 -115.323595 187 25342ft 409kts
03-May-20 09:48 34.833459 -115.331154 193 26940ft 415kts
03-May-20 09:49 34.721282 -115.361861 202 28063ft 417kts
03-May-20 09:50 34.610087 -115.406936 204 28064ft 421kts
03-May-20 09:51 34.500076 -115.454181 204 28064ft 421kts
03-May-20 09:52 34.389967 -115.501968 204 28064ft 421kts
03-May-20 09:53 34.285432 -115.563151 213 28064ft 416kts
03-May-20 09:54 34.181088 -115.625670 207 28058ft 427kts
03-May-20 09:55 34.071781 -115.679615 205 28030ft 438kts
03-May-20 09:55 33.978313 -115.724167 205 28027ft 437kts
03-May-20 09:57 33.846636 -115.787596 206 28027ft 437kts
03-May-20 09:58 33.739095 -115.839851 205 28023ft 390kts
03-May-20 09:58 33.653204 -115.880089 205 28030ft 409kts
03-May-20 10:00 33.530325 -115.950451 224 26239ft 423kts
03-May-20 10:01 33.456162 -116.052100 234 25506ft 406kts
03-May-20 10:01 33.401511 -116.141966 236 23000ft 394kts
03-May-20 10:02 33.335541 -116.242305 223 20337ft 380kts
03-May-20 10:04 33.230926 -116.312634 209 18225ft 363kts
03-May-20 10:04 33.152803 -116.358325 209 16530ft 378kts
03-May-20 10:05 33.061042 -116.411938 209 14329ft 352kts
03-May-20 10:07 32.972364 -116.477288 223 12962ft 311kts
03-May-20 10:07 32.918048 -116.532607 223 11409ft 307kts
03-May-20 10:08 32.854354 -116.596670 223 10221ft 284kts
03-May-20 10:09 32.796459 -116.654936 223 9071ft 275kts
03-May-20 10:10 32.750866 -116.725865 243 7642ft 271kts
03-May-20 10:11 32.716086 -116.799689 242 6303ft 241kts
03-May-20 10:12 32.690285 -116.873164 251 4993ft 244kts
03-May-20 10:13 32.673360 -116.952148 272 4998ft 245kts
03-May-20 10:14 32.692551 -117.027648 287 4063ft 228kts
03-May-20 10:15 32.708917 -117.090353 288 2268ft 191kts
03-May-20 10:16 32.722867 -117.146175 289 908ft 151kts
03-May-20 10:17 32.733947 -117.191572 285 28ft 94kts
03-May-20 10:18 32.734103 -117.199908 245 27ft 7kts
03-May-20 10:19 32.733924 -117.200551 254 27ft 0kts
03-May-20 10:20 32.733924 -117.200551 254 27ft 0kts
03-May-20 10:21 32.733924 -117.200551 254 27ft 0kts
03-May-20 10:22 32.733924 -117.200551 254 27ft 0kts
03-May-20 10:23 32.733924 -117.200551 254 27ft 0kts
03-May-20 10:24 32.733924 -117.200551 254 27ft 0kts

Navigation Log

Ident Type
Flight plan parsing failed, navigation log unavailable